Time;durP1;ratioP1;P1;durP2;ratioP2;P2;SDS_P1;SDS_P2;PMS_P1;PMS_P2;Temp;Humidity;BMP_temperature;BMP_pressure;BME280_temperature;BME280_humidity;BME280_pressure;Samples;Min_cycle;Max_cycle;Signal;HPM_P1;HPM_P2
2023/02/22 00:00:21;;;;;;;111.07;61.35;;;;;;;8.00;100.00;101061.16;5066054;28;20060;-69
2023/02/22 00:02:50;;;;;;;107.28;60.85;;;;;;;8.01;100.00;101056.81;5062086;28;20129;-69
2023/02/22 00:05:21;;;;;;;106.93;59.25;;;;;;;8.04;100.00;101061.75;5066371;28;20047;-69
2023/02/22 00:07:47;;;;;;;98.30;56.40;;;;;;;8.03;100.00;101060.94;5060764;28;20029;-69
2023/02/22 00:10:19;;;;;;;99.57;54.30;;;;;;;8.02;100.00;101054.09;5048331;28;20415;-69
2023/02/22 00:12:47;;;;;;;100.68;55.80;;;;;;;7.99;100.00;101059.53;5065767;28;20056;-69
2023/02/22 00:15:13;;;;;;;78.05;46.72;;;;;;;7.96;100.00;101054.56;5064492;28;20037;-69
2023/02/22 00:17:39;;;;;;;87.70;49.60;;;;;;;7.93;100.00;101059.97;5058963;28;20040;-69
2023/02/22 00:20:05;;;;;;;107.65;56.85;;;;;;;7.92;100.00;101058.31;5063932;28;20041;-69
2023/02/22 00:22:31;;;;;;;95.22;54.72;;;;;;;7.91;100.00;101054.06;5060345;28;20025;-69
2023/02/22 00:24:57;;;;;;;95.75;52.72;;;;;;;7.92;100.00;101051.34;5063151;28;20439;-69
2023/02/22 00:27:22;;;;;;;95.13;52.60;;;;;;;7.91;100.00;101052.28;5063460;28;20105;-69
2023/02/22 00:29:48;;;;;;;98.30;53.95;;;;;;;7.91;100.00;101059.25;5063527;28;20025;-69
2023/02/22 00:32:14;;;;;;;97.43;53.30;;;;;;;7.90;100.00;101055.00;5065298;28;20157;-69
2023/02/22 00:34:40;;;;;;;99.57;54.90;;;;;;;7.89;100.00;101053.34;5070181;28;20028;-69
2023/02/22 00:37:06;;;;;;;96.70;54.65;;;;;;;7.88;100.00;101049.09;5059428;28;20162;-70
2023/02/22 00:39:31;;;;;;;99.63;54.40;;;;;;;7.89;100.00;101051.59;5067164;28;20122;-69
2023/02/22 00:41:56;;;;;;;90.15;49.97;;;;;;;7.87;100.00;101050.03;5069142;28;20033;-70
2023/02/22 00:44:22;;;;;;;96.10;53.75;;;;;;;7.84;100.00;101048.50;5070461;28;20071;-69
2023/02/22 00:46:48;;;;;;;92.38;52.03;;;;;;;7.84;100.00;101048.50;5065618;28;20029;-69
2023/02/22 00:49:14;;;;;;;93.68;49.58;;;;;;;7.83;100.00;101043.41;5065191;28;20068;-70
2023/02/22 00:51:40;;;;;;;92.93;51.20;;;;;;;7.83;100.00;101043.41;5069628;28;20380;-70
2023/02/22 00:54:06;;;;;;;91.32;51.45;;;;;;;7.81;100.00;101042.69;5068321;28;20039;-70
2023/02/22 00:56:33;;;;;;;97.00;52.60;;;;;;;7.80;100.00;101041.88;5067335;28;20086;-69
2023/02/22 00:58:59;;;;;;;104.45;58.13;;;;;;;7.79;100.00;101036.78;5064399;28;20031;-70
2023/02/22 01:01:29;;;;;;;103.35;54.25;;;;;;;7.78;100.00;101035.97;5068804;28;20021;-70
2023/02/22 01:03:54;;;;;;;99.00;54.47;;;;;;;7.79;100.00;101034.22;5065349;28;20119;-70
2023/02/22 01:06:21;;;;;;;99.00;52.80;;;;;;;7.80;100.00;101034.09;5067177;28;20264;-70
2023/02/22 01:08:47;;;;;;;98.75;54.55;;;;;;;7.82;100.00;101031.38;5066104;28;20108;-70
2023/02/22 01:11:15;;;;;;;94.35;52.50;;;;;;;7.86;100.00;101032.81;5070227;28;20033;-70
2023/02/22 01:13:44;;;;;;;95.85;53.50;;;;;;;7.83;100.00;101030.44;5065709;28;20044;-69
2023/02/22 01:16:09;;;;;;;95.13;51.25;;;;;;;7.81;100.00;101040.09;5069412;28;20055;-69
2023/02/22 01:18:35;;;;;;;92.75;52.40;;;;;;;7.78;100.00;101035.97;5068755;28;20112;-69
2023/02/22 01:21:02;;;;;;;98.07;53.67;;;;;;;7.79;100.00;101034.22;5061936;28;20500;-70
2023/02/22 01:23:28;;;;;;;90.40;50.20;;;;;;;7.77;100.00;101041.28;5064405;28;20548;-69
2023/02/22 01:25:53;;;;;;;86.13;46.65;;;;;;;7.77;100.00;101031.72;5067427;28;20115;-69
2023/02/22 01:28:21;;;;;;;88.90;51.45;;;;;;;7.77;100.00;101023.94;5065018;28;20039;-69
2023/02/22 01:30:47;;;;;;;93.75;50.78;;;;;;;7.77;100.00;101023.09;5066510;28;20162;-69
2023/02/22 01:33:14;;;;;;;79.88;45.78;;;;;;;7.75;100.00;101028.41;5067259;28;20040;-70
2023/02/22 01:35:41;;;;;;;78.40;44.33;;;;;;;7.74;100.00;101024.16;5065560;28;20044;-69
2023/02/22 01:38:08;;;;;;;99.50;54.25;;;;;;;7.75;100.00;101020.63;5066324;28;20042;-70
2023/02/22 01:40:36;;;;;;;91.82;50.33;;;;;;;7.70;100.00;101017.53;5062946;28;20437;-69
2023/02/22 01:43:14;;;;;;;99.72;52.85;;;;;;;7.70;100.00;101016.72;5068372;28;20090;-69
2023/02/22 01:46:02;;;;;;;96.53;52.78;;;;;;;7.71;100.00;101013.19;5059644;28;20036;-69
2023/02/22 01:48:43;;;;;;;102.30;50.33;;;;;;;7.72;100.00;101000.09;5046405;28;20040;-69
2023/02/22 01:51:14;;;;;;;92.63;48.92;;;;;;;7.71;100.00;100997.63;5069395;28;20044;-70
2023/02/22 01:53:45;;;;;;;89.70;49.97;;;;;;;7.70;100.00;101006.34;5064472;28;20055;-70
2023/02/22 01:56:11;;;;;;;95.85;54.53;;;;;;;7.72;100.00;100999.28;5065785;28;20051;-69
2023/02/22 01:58:42;;;;;;;100.28;54.40;;;;;;;7.77;100.00;100997.16;5069289;28;20036;-70
2023/02/22 02:01:08;;;;;;;86.53;48.28;;;;;;;7.76;100.00;100998.13;5068491;28;20047;-69
2023/02/22 02:03:37;;;;;;;93.13;52.58;;;;;;;7.74;100.00;100993.03;5063101;28;20051;-69
2023/02/22 02:06:06;;;;;;;100.90;52.30;;;;;;;7.72;100.00;100984.53;5065199;28;20040;-70
2023/02/22 02:09:00;;;;;;;87.88;50.78;;;;;;;7.67;100.00;100986.66;5065609;28;20029;-69
2023/02/22 02:11:25;;;;;;;115.80;61.42;;;;;;;7.68;100.00;100977.94;5066003;28;20439;-70
2023/02/22 02:13:56;;;;;;;102.05;55.60;;;;;;;7.72;100.00;100979.34;5064236;28;20131;-69
2023/02/22 02:16:25;;;;;;;102.13;54.67;;;;;;;7.70;100.00;100975.22;5065921;28;20024;-70
2023/02/22 02:18:51;;;;;;;86.72;50.35;;;;;;;7.66;100.00;100974.63;5061554;28;20036;-69
2023/02/22 02:21:48;;;;;;;101.63;56.20;;;;;;;7.62;100.00;100970.59;5066667;28;20102;-69
2023/02/22 02:24:17;;;;;;;103.97;54.92;;;;;;;7.63;100.00;100961.88;5062098;28;20403;-70
2023/02/22 02:27:11;;;;;;;105.55;57.63;;;;;;;7.70;100.00;100965.66;5065601;28;20047;-69
2023/02/22 02:30:15;;;;;;;101.85;55.08;;;;;;;7.78;100.00;100967.69;5065455;28;20024;-69
2023/02/22 02:32:54;;;;;;;95.85;51.00;;;;;;;7.73;100.00;100969.81;5066676;28;20043;-70
2023/02/22 02:35:28;;;;;;;99.30;54.13;;;;;;;7.66;100.00;100959.88;5071538;28;20025;-70
2023/02/22 02:38:24;;;;;;;102.90;54.50;;;;;;;7.58;100.00;100967.41;5067699;28;20166;-70
2023/02/22 02:41:20;;;;;;;97.50;50.90;;;;;;;7.61;100.00;100955.97;5061602;28;20059;-70
2023/02/22 02:44:08;;;;;;;93.07;50.72;;;;;;;7.65;100.00;100952.22;5070082;28;20055;-69
2023/02/22 02:46:36;;;;;;;92.85;49.63;;;;;;;7.69;100.00;100952.81;5066824;28;20059;-69
2023/02/22 02:49:07;;;;;;;86.70;48.35;;;;;;;7.60;100.00;100951.72;5071253;28;20037;-70
2023/02/22 02:51:40;;;;;;;95.15;51.40;;;;;;;7.47;100.00;100949.22;5072168;28;20123;-70
2023/02/22 02:54:08;;;;;;;96.53;51.35;;;;;;;7.37;100.00;100948.25;5066484;28;20029;-70
2023/02/22 02:56:33;;;;;;;91.68;48.55;;;;;;;7.40;100.00;100947.19;5066516;28;20124;-70
2023/02/22 02:58:59;;;;;;;93.57;49.40;;;;;;;7.37;100.00;100947.41;5061727;28;20115;-70
2023/02/22 03:01:42;;;;;;;94.35;50.30;;;;;;;7.24;100.00;100948.31;5071098;28;20044;-70
2023/02/22 03:04:21;;;;;;;97.88;51.42;;;;;;;7.19;100.00;100942.63;5063073;28;20044;-70
2023/02/22 03:07:04;;;;;;;85.65;47.05;;;;;;;7.10;100.00;100945.06;5069147;28;20041;-70
2023/02/22 03:09:45;;;;;;;96.53;52.05;;;;;;;7.02;100.00;100939.63;5064627;28;20107;-69
2023/02/22 03:12:22;;;;;;;100.45;53.75;;;;;;;6.98;100.00;100932.06;5063876;28;20028;-69
2023/02/22 03:15:02;;;;;;;95.15;51.60;;;;;;;7.01;100.00;100940.56;5065501;28;20450;-70
2023/02/22 03:17:35;;;;;;;89.32;46.50;;;;;;;7.13;100.00;100937.06;5062231;28;20040;-69
2023/02/22 03:20:30;;;;;;;84.18;43.55;;;;;;;7.27;100.00;100934.31;5063491;28;20068;-70
2023/02/22 03:23:14;;;;;;;78.88;43.88;;;;;;;7.31;100.00;100933.97;5056815;28;20119;-70
2023/02/22 03:25:48;;;;;;;89.57;45.50;;;;;;;7.27;100.00;100936.91;5062906;28;20754;-69
2023/02/22 03:28:17;;;;;;;84.30;45.67;;;;;;;7.18;100.00;100938.38;5069320;28;20114;-70
2023/02/22 03:31:04;;;;;;;94.50;50.22;;;;;;;7.09;100.00;100938.25;5045262;28;20414;-69
2023/02/22 03:33:36;;;;;;;101.55;54.92;;;;;;;7.02;100.00;100937.03;5063503;28;20629;-70
2023/02/22 03:36:19;;;;;;;102.78;55.97;;;;;;;6.92;100.00;100942.88;5063080;28;20040;-70
2023/02/22 03:38:47;;;;;;;122.35;62.92;;;;;;;6.88;100.00;100943.19;5070180;28;20467;-69
2023/02/22 03:41:16;;;;;;;108.80;60.08;;;;;;;6.83;100.00;100940.09;5063525;28;20038;-69
2023/02/22 03:43:47;;;;;;;119.85;64.70;;;;;;;6.80;100.00;100938.56;5063634;28;20345;-69
2023/02/22 03:46:14;;;;;;;125.35;65.30;;;;;;;6.72;100.00;100946.03;5068145;28;20043;-69
2023/02/22 03:49:00;;;;;;;122.18;65.25;;;;;;;6.62;100.00;100943.25;5067896;28;20032;-70
2023/02/22 03:51:26;;;;;;;111.60;64.40;;;;;;;6.58;100.00;100941.84;5057899;28;20028;-69
2023/02/22 03:53:52;;;;;;;128.13;66.55;;;;;;;6.52;100.00;100938.84;5066081;28;20052;-69
2023/02/22 03:56:46;;;;;;;119.07;66.95;;;;;;;6.46;100.00;100949.63;5064011;28;20064;-69
2023/02/22 03:59:11;;;;;;;121.57;67.05;;;;;;;6.42;100.00;100937.84;5054228;28;20069;-69
2023/02/22 04:01:37;;;;;;;113.95;61.55;;;;;;;6.28;100.00;100943.94;5068961;28;20063;-69
2023/02/22 04:04:03;;;;;;;111.10;61.83;;;;;;;6.15;100.00;100941.38;5067267;28;20479;-69
2023/02/22 04:06:29;;;;;;;114.90;61.75;;;;;;;6.06;100.00;100947.19;5065147;28;20115;-69
2023/02/22 04:08:55;;;;;;;114.43;62.20;;;;;;;5.97;100.00;100940.06;5067164;28;20124;-69
2023/02/22 04:11:20;;;;;;;115.65;61.70;;;;;;;5.92;100.00;100949.88;5069795;28;20062;-69
2023/02/22 04:13:46;;;;;;;118.10;62.38;;;;;;;5.87;100.00;100946.72;5068187;28;20473;-70
2023/02/22 04:16:11;;;;;;;119.72;64.55;;;;;;;5.80;100.00;100951.47;5065212;28;20047;-69
2023/02/22 04:18:36;;;;;;;114.45;63.08;;;;;;;5.74;100.00;100945.88;5069322;28;20056;-70
2023/02/22 04:21:02;;;;;;;107.65;60.38;;;;;;;5.68;100.00;100944.53;5042403;28;20051;-69
2023/02/22 04:23:27;;;;;;;111.53;60.88;;;;;;;5.62;100.00;100950.13;5064440;28;20052;-69
2023/02/22 04:25:53;;;;;;;106.25;57.47;;;;;;;5.53;100.00;100948.97;5069459;28;20032;-70
2023/02/22 04:28:18;;;;;;;111.03;61.25;;;;;;;5.47;100.00;100951.13;5071571;28;20037;-69
2023/02/22 04:30:44;;;;;;;114.68;61.78;;;;;;;5.41;100.00;100944.59;5061978;28;20501;-70
2023/02/22 04:33:10;;;;;;;116.65;62.88;;;;;;;5.34;100.00;100943.34;5069101;28;20555;-69
2023/02/22 04:35:36;;;;;;;111.13;59.35;;;;;;;5.31;100.00;100948.69;5065676;28;20039;-69
2023/02/22 04:38:03;;;;;;;121.30;64.25;;;;;;;5.25;100.00;100944.75;5063122;28;20131;-69
2023/02/22 04:40:29;;;;;;;116.68;61.78;;;;;;;5.18;100.00;100934.94;5064681;28;20044;-69
2023/02/22 04:42:54;;;;;;;119.95;64.38;;;;;;;5.15;100.00;100948.06;5067216;28;20035;-70
2023/02/22 04:45:19;;;;;;;119.25;61.95;;;;;;;5.11;100.00;100944.00;5067384;28;20411;-69
2023/02/22 04:47:45;;;;;;;126.63;67.30;;;;;;;5.09;100.00;100940.69;5071370;28;20040;-69
2023/02/22 04:50:11;;;;;;;119.60;63.17;;;;;;;5.06;100.00;100948.63;5064972;28;20132;-69
2023/02/22 04:52:37;;;;;;;115.18;61.42;;;;;;;5.00;100.00;100944.69;5063287;28;20086;-70
2023/02/22 04:55:03;;;;;;;119.63;62.08;;;;;;;4.96;100.00;100946.63;5066086;28;20024;-69
2023/02/22 04:57:29;;;;;;;115.97;60.72;;;;;;;4.94;100.00;100939.91;5047890;28;20037;-69
2023/02/22 04:59:55;;;;;;;130.23;64.90;;;;;;;4.89;100.00;100937.59;5063023;28;20028;-70
2023/02/22 05:02:20;;;;;;;124.53;65.80;;;;;;;4.89;100.00;100942.78;5063265;28;20033;-69
2023/02/22 05:04:46;;;;;;;128.52;66.25;;;;;;;4.86;100.00;100940.38;5061766;28;20024;-69
2023/02/22 05:07:11;;;;;;;117.10;60.92;;;;;;;4.85;100.00;100938.72;5062902;28;20032;-69
2023/02/22 05:09:37;;;;;;;123.78;64.30;;;;;;;4.83;100.00;100934.56;5065307;28;20543;-69
2023/02/22 05:12:02;;;;;;;136.27;66.63;;;;;;;4.79;100.00;100941.69;5068267;28;20037;-69
2023/02/22 05:14:28;;;;;;;116.30;60.78;;;;;;;4.77;100.00;100935.78;5058838;28;20036;-69
2023/02/22 05:16:55;;;;;;;121.90;63.10;;;;;;;4.74;100.00;100940.31;5063298;28;20086;-69
2023/02/22 05:19:21;;;;;;;130.13;65.10;;;;;;;4.72;100.00;100943.03;5067525;28;20075;-69
2023/02/22 05:21:46;;;;;;;127.68;64.45;;;;;;;4.72;100.00;100940.44;5066099;28;20052;-68
2023/02/22 05:24:11;;;;;;;127.03;62.97;;;;;;;4.67;100.00;100934.72;5072232;28;20032;-72
2023/02/22 05:26:37;;;;;;;105.72;59.58;;;;;;;4.62;100.00;100939.34;5068659;28;20040;-71
2023/02/22 05:29:02;;;;;;;110.28;59.55;;;;;;;4.58;100.00;100943.03;5064779;28;20119;-71
2023/02/22 05:31:27;;;;;;;117.30;59.88;;;;;;;4.55;100.00;100935.47;5066835;28;20047;-70
2023/02/22 05:33:53;;;;;;;119.63;61.13;;;;;;;4.54;100.00;100942.41;5070403;28;20032;-70
2023/02/22 05:36:18;;;;;;;109.95;59.88;;;;;;;4.52;100.00;100940.81;5069127;28;20056;-70
2023/02/22 05:38:44;;;;;;;118.22;59.42;;;;;;;4.49;100.00;100948.75;5070990;28;20040;-70
2023/02/22 05:41:11;;;;;;;122.15;60.42;;;;;;;4.47;100.00;100948.84;5070438;28;20476;-70
2023/02/22 05:43:37;;;;;;;110.20;57.05;;;;;;;4.42;100.00;100950.03;5067918;28;20041;-70
2023/02/22 05:46:02;;;;;;;109.72;58.28;;;;;;;4.34;100.00;100947.94;5065419;28;20040;-70
2023/02/22 05:48:28;;;;;;;112.78;57.85;;;;;;;4.26;100.00;100943.22;5068017;28;20037;-71
2023/02/22 05:50:54;;;;;;;119.25;61.97;;;;;;;4.24;100.00;100945.09;5065661;28;20028;-70
2023/02/22 05:53:20;;;;;;;110.05;55.38;;;;;;;4.25;100.00;100951.88;5063489;28;20059;-71
2023/02/22 05:55:45;;;;;;;96.35;54.03;;;;;;;4.25;100.00;100946.72;5069908;28;20119;-70
2023/02/22 05:58:11;;;;;;;98.00;52.67;;;;;;;4.23;100.00;100948.59;5064115;28;20379;-70
2023/02/22 06:00:36;;;;;;;93.25;51.50;;;;;;;4.24;100.00;100950.25;5060499;28;20037;-70
2023/02/22 06:03:05;;;;;;;115.28;55.13;;;;;;;4.23;100.00;100951.19;5069021;28;20107;-70
2023/02/22 06:05:30;;;;;;;105.18;51.28;;;;;;;4.22;100.00;100956.44;5066392;28;20124;-70
2023/02/22 06:07:56;;;;;;;102.28;52.05;;;;;;;4.21;100.00;100954.78;5066614;28;20116;-70
2023/02/22 06:10:22;;;;;;;104.88;50.03;;;;;;;4.22;100.00;100957.25;5066835;28;20115;-70
2023/02/22 06:12:49;;;;;;;97.63;47.72;;;;;;;4.22;100.00;100967.56;5067303;28;20107;-69
2023/02/22 06:15:16;;;;;;;92.95;45.22;;;;;;;4.24;100.00;100958.00;5067414;28;20028;-70
2023/02/22 06:17:42;;;;;;;95.57;44.00;;;;;;;4.22;100.00;100967.56;5060211;28;20025;-70
2023/02/22 06:20:13;;;;;;;93.43;42.42;;;;;;;4.24;100.00;100970.91;5061973;28;20029;-70
2023/02/22 06:22:41;;;;;;;85.80;45.20;;;;;;;4.24;100.00;100970.06;5068920;28;20115;-69
2023/02/22 06:25:08;;;;;;;95.70;48.88;;;;;;;4.20;100.00;100972.00;5062533;28;20549;-69
2023/02/22 06:27:34;;;;;;;111.13;52.58;;;;;;;4.16;100.00;100978.25;5066775;28;20163;-70
2023/02/22 06:30:00;;;;;;;107.40;54.38;;;;;;;4.23;100.00;100979.56;5065267;28;24729;-69
2023/02/22 06:32:26;;;;;;;101.28;53.22;;;;;;;4.31;100.00;100979.91;5068583;28;20029;-70
2023/02/22 06:34:52;;;;;;;121.65;58.00;;;;;;;4.37;100.00;100972.72;5073127;28;20032;-70
2023/02/22 06:37:17;;;;;;;110.65;57.05;;;;;;;4.44;100.00;100972.25;5071150;28;20150;-69
2023/02/22 06:39:43;;;;;;;113.82;59.15;;;;;;;4.47;100.00;100972.06;5066055;28;20028;-70
2023/02/22 06:42:08;;;;;;;110.47;56.63;;;;;;;4.54;100.00;100982.84;5070856;28;20085;-69
2023/02/22 06:44:34;;;;;;;111.05;57.30;;;;;;;4.60;100.00;100982.47;5067234;28;20388;-70
2023/02/22 06:46:59;;;;;;;123.88;57.55;;;;;;;4.65;100.00;100978.69;5069470;28;20107;-70
2023/02/22 06:49:26;;;;;;;118.30;58.30;;;;;;;4.72;100.00;100980.91;5067191;28;20443;-69
2023/02/22 06:51:52;;;;;;;117.45;57.17;;;;;;;4.81;100.00;100982.91;5064290;28;20044;-69
2023/02/22 06:54:18;;;;;;;112.47;57.83;;;;;;;4.93;100.00;100987.31;5050228;28;20456;-70
2023/02/22 06:56:43;;;;;;;125.55;64.18;;;;;;;5.03;100.00;100979.81;5070664;28;20069;-69
2023/02/22 06:59:08;;;;;;;123.00;63.67;;;;;;;5.14;100.00;100982.56;5064857;28;20491;-70
2023/02/22 07:01:36;;;;;;;126.57;64.30;;;;;;;5.27;100.00;100988.56;5061867;28;20041;-69
2023/02/22 07:04:02;;;;;;;129.40;64.82;;;;;;;5.39;100.00;100990.38;5031288;28;20037;-70
2023/02/22 07:06:28;;;;;;;130.80;65.93;;;;;;;5.60;100.00;100983.84;5065510;28;20036;-69
2023/02/22 07:08:54;;;;;;;126.18;65.85;;;;;;;5.90;100.00;100988.75;5063954;28;20145;-70
2023/02/22 07:11:19;;;;;;;124.82;67.25;;;;;;;6.14;100.00;100990.66;5068755;28;20058;-69
2023/02/22 07:13:45;;;;;;;127.90;64.13;;;;;;;6.27;100.00;100984.53;5060252;28;20033;-70
2023/02/22 07:16:11;;;;;;;123.03;63.58;;;;;;;6.48;100.00;100987.41;5055807;28;20063;-70
2023/02/22 07:18:38;;;;;;;121.30;61.75;;;;;;;6.64;100.00;100989.75;5054429;28;20036;-70
2023/02/22 07:21:05;;;;;;;109.28;58.50;;;;;;;6.57;100.00;100986.78;5052797;28;20388;-70
2023/02/22 07:23:31;;;;;;;114.20;59.78;;;;;;;6.56;100.00;100979.13;5054430;28;20107;-70
2023/02/22 07:25:59;;;;;;;105.63;57.25;;;;;;;6.55;100.00;100990.41;5052455;28;20086;-70
2023/02/22 07:28:24;;;;;;;109.35;57.25;;;;;;;6.56;100.00;100986.91;5054285;28;20020;-70
2023/02/22 07:30:50;;;;;;;104.68;56.45;;;;;;;6.57;100.00;100983.38;5050611;28;20405;-70
2023/02/22 07:33:15;;;;;;;105.97;54.60;;;;;;;6.58;100.00;100985.03;5052568;28;20032;-70
2023/02/22 07:35:46;;;;;;;103.68;54.67;;;;;;;6.47;100.00;100983.19;5035987;28;20037;-70
2023/02/22 07:38:14;;;;;;;107.20;56.03;;;;;;;6.51;100.00;100969.09;5055487;28;20402;-70
2023/02/22 07:40:40;;;;;;;102.75;55.30;;;;;;;6.56;100.00;100977.38;5062409;28;20032;-69
2023/02/22 07:43:18;;;;;;;101.22;52.35;;;;;;;6.55;100.00;100975.72;5063083;28;20428;-70
2023/02/22 07:45:45;;;;;;;97.43;50.30;;;;;;;6.63;100.00;100973.38;5060270;28;20040;-70
2023/02/22 07:48:12;;;;;;;97.70;51.63;;;;;;;6.76;100.00;100978.53;5060776;28;20454;-70
2023/02/22 07:50:38;;;;;;;88.85;49.40;;;;;;;6.92;100.00;100975.72;5070066;28;20113;-69
2023/02/22 07:53:07;;;;;;;90.95;48.13;;;;;;;6.96;100.00;100967.63;5063345;28;20168;-70
2023/02/22 07:55:33;;;;;;;88.25;46.97;;;;;;;7.03;100.00;100962.84;5061673;28;20395;-70
2023/02/22 07:58:02;;;;;;;92.75;50.17;;;;;;;7.16;100.00;100968.75;5067513;28;20503;-70
2023/02/22 08:00:33;;;;;;;88.03;47.60;;;;;;;7.27;100.00;100962.81;5064911;28;20047;-70
2023/02/22 08:03:04;;;;;;;88.50;48.40;;;;;;;7.40;100.00;100963.59;5058561;28;20467;-70
2023/02/22 08:05:31;;;;;;;94.47;48.47;;;;;;;7.49;100.00;100960.31;5068145;28;20028;-69
2023/02/22 08:07:57;;;;;;;99.78;51.83;;;;;;;7.57;100.00;100960.56;5066739;28;20417;-69
2023/02/22 08:10:24;;;;;;;84.40;46.53;;;;;;;7.59;100.00;100957.84;5063185;28;20060;-70
2023/02/22 08:12:50;;;;;;;90.13;47.03;;;;;;;7.68;100.00;100956.34;5066109;28;20467;-69
2023/02/22 08:15:23;;;;;;;85.70;46.10;;;;;;;7.76;100.00;100959.19;5063865;28;20032;-69
2023/02/22 08:17:49;;;;;;;85.95;47.08;;;;;;;7.87;100.00;100951.44;5062866;28;20023;-69
2023/02/22 08:20:15;;;;;;;83.60;43.75;;;;;;;7.94;100.00;100952.66;5071115;28;20036;-69
2023/02/22 08:22:44;;;;;;;79.55;44.90;;;;;;;8.02;100.00;100955.50;5065089;28;20118;-68
2023/02/22 08:25:10;;;;;;;87.03;46.53;;;;;;;8.10;100.00;100950.53;5066275;28;20090;-69
2023/02/22 08:27:36;;;;;;;82.25;44.47;;;;;;;8.20;100.00;100951.47;5061640;28;20497;-69
2023/02/22 08:30:01;;;;;;;83.20;45.85;;;;;;;8.27;100.00;100950.06;5057039;28;20028;-72
2023/02/22 08:32:27;;;;;;;77.45;43.42;;;;;;;8.38;100.00;100945.84;5068386;28;20120;-70
2023/02/22 08:34:52;;;;;;;76.30;43.80;;;;;;;8.42;100.00;100949.88;5059520;28;20133;-70
2023/02/22 08:37:17;;;;;;;73.05;40.13;;;;;;;8.46;100.00;100952.13;5064027;28;20036;-70
2023/02/22 08:39:44;;;;;;;78.63;41.33;;;;;;;8.55;100.00;100943.56;5059308;28;20077;-70
2023/02/22 08:42:09;;;;;;;77.68;41.60;;;;;;;8.66;100.00;100942.75;5053585;28;20039;-70
2023/02/22 08:44:36;;;;;;;72.53;38.58;;;;;;;8.78;100.00;100943.56;5050567;28;20036;-70
2023/02/22 08:47:01;;;;;;;76.82;40.45;;;;;;;8.80;100.00;100950.28;5050482;28;20079;-70
2023/02/22 08:49:27;;;;;;;67.10;39.13;;;;;;;8.81;100.00;100938.94;5052446;28;20067;-70
2023/02/22 08:51:52;;;;;;;72.72;40.90;;;;;;;8.87;100.00;100943.66;5052139;28;20024;-70
2023/02/22 08:54:18;;;;;;;65.93;37.67;;;;;;;8.91;100.00;100945.06;5052810;28;20033;-70
2023/02/22 08:56:43;;;;;;;70.55;40.35;;;;;;;8.97;100.00;100954.16;5057292;28;20479;-72
2023/02/22 08:59:09;;;;;;;73.85;37.83;;;;;;;9.01;100.00;100950.31;5069534;28;20040;-72
2023/02/22 09:01:35;;;;;;;68.72;36.30;;;;;;;9.12;100.00;100952.91;5070426;28;20038;-72
2023/02/22 09:04:01;;;;;;;73.80;38.95;;;;;;;9.20;100.00;100954.88;5042561;28;20028;-72
2023/02/22 09:06:27;;;;;;;68.25;38.30;;;;;;;9.27;99.61;100956.06;5058768;28;20163;-73
2023/02/22 09:08:52;;;;;;;69.22;37.47;;;;;;;9.38;99.50;100948.22;5057042;28;20039;-72
2023/02/22 09:11:17;;;;;;;65.07;36.92;;;;;;;9.50;99.27;100954.16;5058920;28;20950;-73
2023/02/22 09:13:43;;;;;;;71.70;38.38;;;;;;;9.54;99.08;100951.19;5054752;28;20517;-72
2023/02/22 09:16:08;;;;;;;68.07;37.63;;;;;;;9.61;98.12;100951.50;5056990;28;20415;-72
2023/02/22 09:18:34;;;;;;;72.70;39.15;;;;;;;9.57;97.64;100950.94;5055682;28;20036;-72
2023/02/22 09:20:59;;;;;;;67.60;35.92;;;;;;;9.65;97.64;100945.09;5057310;28;20667;-72
2023/02/22 09:23:26;;;;;;;72.15;37.47;;;;;;;9.72;96.61;100943.66;5053270;28;20136;-72
2023/02/22 09:25:52;;;;;;;69.25;36.80;;;;;;;9.76;96.50;100945.03;5051792;28;20037;-72
2023/02/22 09:28:18;;;;;;;69.15;36.70;;;;;;;9.76;96.40;100947.66;5053825;28;20115;-72
2023/02/22 09:30:43;;;;;;;68.95;37.15;;;;;;;9.76;96.28;100941.63;5054617;28;20265;-72
2023/02/22 09:33:14;;;;;;;65.45;37.67;;;;;;;9.84;95.69;100944.41;5056195;28;20055;-71
2023/02/22 09:35:41;;;;;;;65.68;37.50;;;;;;;9.86;95.45;100938.13;5057290;28;20721;-72
2023/02/22 09:38:08;;;;;;;75.18;38.72;;;;;;;9.95;94.96;100939.94;5053317;28;20472;-72
2023/02/22 09:40:43;;;;;;;68.63;37.97;;;;;;;10.12;94.99;100943.72;5055592;28;20055;-72
2023/02/22 09:43:27;;;;;;;67.40;37.35;;;;;;;10.26;93.71;100933.00;5059631;28;20029;-72
2023/02/22 09:46:01;;;;;;;64.13;37.58;;;;;;;10.28;93.16;100938.06;5055569;28;20388;-72
2023/02/22 09:48:31;;;;;;;69.38;36.75;;;;;;;10.34;92.69;100934.94;5058043;28;20388;-72
2023/02/22 09:51:00;;;;;;;66.40;35.67;;;;;;;10.45;91.72;100929.63;5067898;28;20086;-72
2023/02/22 09:53:40;;;;;;;65.78;36.97;;;;;;;10.56;86.85;100928.69;5071375;28;20036;-73
2023/02/22 09:56:10;;;;;;;64.50;35.47;;;;;;;10.72;88.77;100931.63;5069048;28;20537;-70
2023/02/22 09:58:41;;;;;;;61.97;34.63;;;;;;;10.75;89.40;100914.91;5071011;28;20033;-72
2023/02/22 10:01:32;;;;;;;60.72;35.53;;;;;;;10.77;88.21;100913.81;5069092;28;20047;-72
2023/02/22 10:04:21;;;;;;;69.25;36.25;;;;;;;10.81;87.25;100915.19;5054091;28;20502;-72
2023/02/22 10:07:17;;;;;;;62.40;35.47;;;;;;;10.88;86.19;100903.22;5057593;28;20037;-72
2023/02/22 10:09:44;;;;;;;66.75;34.72;;;;;;;10.96;88.06;100911.19;5050502;28;20067;-70
2023/02/22 10:12:34;;;;;;;63.65;35.75;;;;;;;11.06;87.98;100905.16;5058500;28;20148;-71
2023/02/22 10:15:52;;;;;;;65.63;36.10;;;;;;;11.36;87.41;100898.97;5041935;28;20227;-70
2023/02/22 10:19:25;;;;;;;59.47;33.00;;;;;;;11.60;86.64;100892.34;5026591;28;20045;-71
2023/02/22 10:22:17;;;;;;;58.95;34.55;;;;;;;11.78;86.83;100894.28;4920927;29;20047;-70
2023/02/22 10:25:12;;;;;;;57.83;34.17;;;;;;;11.79;85.21;100895.94;4918669;28;20050;-69
2023/02/22 10:27:47;;;;;;;57.40;33.03;;;;;;;11.70;83.97;100891.50;4914822;28;20550;-70
2023/02/22 10:30:25;;;;;;;56.50;31.93;;;;;;;11.69;80.65;100888.06;4918879;29;20174;-70
2023/02/22 10:33:04;;;;;;;56.63;32.33;;;;;;;11.80;80.57;100892.34;4924879;28;20051;-70
2023/02/22 10:35:34;;;;;;;55.72;31.65;;;;;;;11.89;82.27;100886.25;4914483;29;20110;-70
2023/02/22 10:38:12;;;;;;;54.53;32.00;;;;;;;11.92;80.60;100878.13;4932847;29;20114;-69
2023/02/22 10:40:38;;;;;;;54.63;32.30;;;;;;;11.93;82.58;100874.56;4923541;29;20072;-70
2023/02/22 10:43:05;;;;;;;59.13;33.60;;;;;;;11.98;82.98;100881.97;4909879;29;20127;-70
2023/02/22 10:45:33;;;;;;;55.72;33.15;;;;;;;12.05;81.43;100878.63;4920751;29;20111;-69
2023/02/22 10:48:07;;;;;;;56.45;32.50;;;;;;;12.10;81.40;100873.81;4922285;28;20071;-70
2023/02/22 10:50:34;;;;;;;56.38;33.00;;;;;;;12.20;82.23;100874.59;4926304;29;20467;-70
2023/02/22 10:52:59;;;;;;;60.55;32.85;;;;;;;12.21;81.79;100871.00;4966030;28;20108;-70
2023/02/22 10:55:26;;;;;;;56.10;33.45;;;;;;;12.17;83.00;100867.03;4982975;28;20038;-70
2023/02/22 10:58:00;;;;;;;60.92;34.20;;;;;;;12.12;83.17;100865.81;4995210;28;20123;-71
2023/02/22 11:00:36;;;;;;;60.38;33.63;;;;;;;11.96;81.22;100871.66;5052356;28;20119;-71
2023/02/22 11:03:03;;;;;;;52.75;31.90;;;;;;;11.95;82.76;100867.41;5051326;28;20040;-71
2023/02/22 11:05:40;;;;;;;59.05;32.38;;;;;;;11.98;82.51;100859.28;5059412;28;20085;-71
2023/02/22 11:08:20;;;;;;;56.60;33.45;;;;;;;12.07;81.60;100857.59;5058232;28;20039;-71
2023/02/22 11:10:47;;;;;;;57.03;32.97;;;;;;;12.18;82.45;100855.63;5058688;28;20055;-71
2023/02/22 11:13:36;;;;;;;58.22;34.17;;;;;;;12.22;81.72;100856.16;5055113;28;20066;-70
2023/02/22 11:16:50;;;;;;;56.13;33.35;;;;;;;12.22;80.74;100851.75;5054723;28;20078;-71
2023/02/22 11:19:19;;;;;;;61.45;33.72;;;;;;;12.21;82.24;100844.88;5001745;28;20128;-71